Ag Nektarios Aiginas — SX7083 — position and weather

sailwx.info

Track history (hours):
 
Tides and Currents Weather Stations Pressure Air Temp Water Temp Dewpoint Dewpoint Depression Visibility Wind Speed Wind Dir Waves Ship Positions

Ag Nektarios Aiginas

Last reported at 2017-Oct-17 11:30 UTC. Time now 2017-Oct-17 11:39 UTC.
Position N 37°46' E 023°26'.

Length 75 m; draft 2.7 m.

Type: Passenger vessel. MMSI: 237021400.

Date/timePositionNaut miles runAvg speedWind from/ knotsBaromVisibWave heightAir tempDewpointWater temp
2017-Oct-17 11:30N 37°46' E 023°26'2 3.6
2017-Oct-17 11:00N 37°45' E 023°25'2 3.2
2017-Oct-17 10:29N 37°46' E 023°26'612.7
2017-Oct-17 10:00N 37°50' E 023°32'612.8
2017-Oct-17 09:30N 37°55' E 023°36'2 3.4
2017-Oct-17 08:52N 37°57' E 023°39'2 4.3
2017-Oct-17 08:30N 37°56' E 023°37'612.5
2017-Oct-17 08:00N 37°51' E 023°32'612.5
2017-Oct-17 07:30N 37°47' E 023°26'2 3.1
2017-Oct-17 06:48N 37°45' E 023°25'3 8.7
2017-Oct-17 06:30N 37°47' E 023°27'612.7
2017-Oct-17 06:00N 37°51' E 023°33'612.4
2017-Oct-17 05:30N 37°56' E 023°37'1 2.1
2017-Oct-17 05:00N 37°57' E 023°38'0 0.0
2017-Oct-17 04:30N 37°57' E 023°38'0 0.0
2017-Oct-16 16:53N 37°57' E 023°38'2 5.3
2017-Oct-16 16:31N 37°55' E 023°37'612.8
2017-Oct-16 16:01N 37°50' E 023°32'612.8
2017-Oct-16 15:31N 37°46' E 023°25'2 3.5
2017-Oct-16 15:01N 37°45' E 023°25'7 7.2
2017-Oct-16 14:01N 37°50' E 023°31'713.1
2017-Oct-16 13:31N 37°55' E 023°36'2 4.2
2017-Oct-16 13:01N 37°57' E 023°39'3 5.1
2017-Oct-16 12:31N 37°55' E 023°36'612.6
2017-Oct-16 12:01N 37°50' E 023°31'612.6
2017-Oct-16 11:31N 37°46' E 023°25'1 2.8
2017-Oct-16 11:01N 37°45' E 023°25'2 3.4
2017-Oct-16 10:27N 37°47' E 023°26'612.9
2017-Oct-16 10:00N 37°50' E 023°31'612.9
2017-Oct-16 09:31N 37°55' E 023°36'2 4.4
2017-Oct-16 09:01N 37°57' E 023°39'0 0.7
2017-Oct-16 08:31N 37°57' E 023°38'612.0
2017-Oct-16 07:59N 37°52' E 023°33'612.6
2017-Oct-16 07:30N 37°48' E 023°27'3 6.5
2017-Oct-16 07:00N 37°45' E 023°25'2 4.7
2017-Oct-16 06:30N 37°47' E 023°26'612.8
2017-Oct-16 06:00N 37°51' E 023°33'612.8
2017-Oct-16 05:30N 37°56' E 023°37'1 2.1
2017-Oct-16 05:00N 37°57' E 023°39'0 0.0
2017-Oct-16 04:30N 37°57' E 023°39'0 0.0
2017-Oct-15 17:16N 37°57' E 023°39'0 0.0
2017-Oct-15 17:01N 37°57' E 023°39'5 9.5
2017-Oct-15 16:30N 37°53' E 023°34'612.4
2017-Oct-15 16:00N 37°49' E 023°29'5 9.3
2017-Oct-15 15:29N 37°45' E 023°25'0 0.1
2017-Oct-15 15:00N 37°45' E 023°26'7 6.8
2017-Oct-15 14:00N 37°50' E 023°31'613.0
2017-Oct-15 13:31N 37°55' E 023°36'2 5.0
2017-Oct-15 13:00N 37°57' E 023°39'3 5.1
2017-Oct-15 12:31N 37°55' E 023°36'612.5
2017-Oct-15 12:00N 37°50' E 023°31'612.5
2017-Oct-15 11:30N 37°46' E 023°25'2 3.2
2017-Oct-15 11:00N 37°45' E 023°25'1 2.7
2017-Oct-15 10:30N 37°46' E 023°25'612.8
2017-Oct-15 10:01N 37°50' E 023°31'612.9
2017-Oct-15 09:31N 37°55' E 023°36'2 4.9
2017-Oct-15 09:01N 37°57' E 023°39'3 5.1
2017-Oct-15 08:30N 37°55' E 023°36'612.6
2017-Oct-15 08:01N 37°50' E 023°31'612.5
2017-Oct-15 07:31N 37°46' E 023°25'1 2.8
2017-Oct-15 07:00N 37°45' E 023°25'4 7.9
2017-Oct-15 06:30N 37°48' E 023°28'612.7
2017-Oct-15 06:00N 37°53' E 023°34'611.2
2017-Oct-15 05:30N 37°57' E 023°39'0 0.0
2017-Oct-15 05:01N 37°57' E 023°39'0 0.0
2017-Oct-14 17:57N 37°57' E 023°39'1 1.8
2017-Oct-14 17:30N 37°56' E 023°38'612.3
2017-Oct-14 17:00N 37°51' E 023°33'612.5
2017-Oct-14 16:30N 37°47' E 023°27'3 5.7
2017-Oct-14 16:00N 37°45' E 023°25'0 0.0
2017-Oct-14 15:30N 37°45' E 023°25'4 7.8
2017-Oct-14 15:00N 37°48' E 023°28'612.9
2017-Oct-14 14:30N 37°52' E 023°34'611.0
2017-Oct-14 14:00N 37°57' E 023°39'0 0.0
2017-Oct-14 13:30N 37°57' E 023°39'0 0.0
2017-Oct-14 13:00N 37°57' E 023°38'510.1
2017-Oct-14 12:30N 37°53' E 023°34'612.6
2017-Oct-14 12:00N 37°48' E 023°29'4 8.7
2017-Oct-14 11:30N 37°45' E 023°25'0 0.0
2017-Oct-14 11:00N 37°45' E 023°25'4 8.0
2017-Oct-14 10:30N 37°48' E 023°28'612.8
2017-Oct-14 10:00N 37°53' E 023°34'510.9
2017-Oct-14 09:30N 37°57' E 023°39'0 0.0
2017-Oct-14 09:00N 37°57' E 023°39'4 8.1
2017-Oct-14 08:30N 37°53' E 023°36'612.4
2017-Oct-14 08:00N 37°49' E 023°30'611.4
2017-Oct-14 07:30N 37°45' E 023°25'0 0.6
2017-Oct-14 07:00N 37°45' E 023°25'611.0
2017-Oct-14 06:30N 37°49' E 023°30'612.5
2017-Oct-14 06:00N 37°54' E 023°35'4 8.5
2017-Oct-14 05:30N 37°57' E 023°38'0 0.0
2017-Oct-14 05:00N 37°57' E 023°38'0 0.0
2017-Oct-14 04:30N 37°57' E 023°38'0 0.0
2017-Oct-13 17:39N 37°57' E 023°38'0 0.1
2017-Oct-13 17:30N 37°57' E 023°38'5 9.8
2017-Oct-13 17:00N 37°53' E 023°35'612.6
2017-Oct-13 16:30N 37°48' E 023°29'5 8.6
2017-Oct-13 15:58N 37°45' E 023°26'0 0.0
2017-Oct-13 15:30N 37°45' E 023°26'0 0.0
2017-Oct-13 15:00N 37°45' E 023°25'4 8.5
2017-Oct-13 14:30N 37°48' E 023°28'612.8
2017-Oct-13 14:00N 37°53' E 023°34'510.4
2017-Oct-13 13:30N 37°57' E 023°39'0 0.0
2017-Oct-13 13:00N 37°57' E 023°39'2 4.9
2017-Oct-13 12:30N 37°55' E 023°36'612.4
2017-Oct-13 12:00N 37°50' E 023°32'612.8
2017-Oct-13 11:30N 37°46' E 023°25'2 3.2
2017-Oct-13 11:00N 37°45' E 023°26'2 3.9
2017-Oct-13 10:27N 37°47' E 023°26'612.7
2017-Oct-13 10:00N 37°50' E 023°31'612.8
2017-Oct-13 09:30N 37°55' E 023°36'2 4.2
2017-Oct-13 09:00N 37°57' E 023°39'3 6.3
2017-Oct-13 08:30N 37°55' E 023°36'612.5
2017-Oct-13 08:00N 37°50' E 023°31'612.4
2017-Oct-13 07:30N 37°46' E 023°25'1 2.2
2017-Oct-13 07:00N 37°45' E 023°25'4 8.8
2017-Oct-13 06:30N 37°48' E 023°29'612.6
2017-Oct-13 06:00N 37°53' E 023°34'510.1
2017-Oct-13 05:30N 37°57' E 023°38'0 0.0
2017-Oct-13 05:00N 37°57' E 023°38'0 0.0
2017-Oct-13 04:30N 37°57' E 023°38'0 0.0
2017-Oct-12 16:58N 37°57' E 023°38'3 5.5
2017-Oct-12 16:31N 37°55' E 023°36'612.8
2017-Oct-12 16:00N 37°50' E 023°31'612.8
2017-Oct-12 15:31N 37°46' E 023°25'1 2.5
2017-Oct-12 15:01N 37°45' E 023°26'1 2.9
2017-Oct-12 14:30N 37°46' E 023°25'612.7
2017-Oct-12 14:01N 37°50' E 023°31'612.6
2017-Oct-12 13:30N 37°55' E 023°36'2 4.7
2017-Oct-12 13:00N 37°57' E 023°39'2 4.0
2017-Oct-12 12:31N 37°56' E 023°36'612.8
2017-Oct-12 12:01N 37°50' E 023°32'612.9
2017-Oct-12 11:31N 37°46' E 023°25'2 2.9
2017-Oct-12 10:58N 37°45' E 023°25'1 2.7
2017-Oct-12 10:31N 37°46' E 023°25'612.8
2017-Oct-12 10:01N 37°50' E 023°31'612.9
2017-Oct-12 09:30N 37°55' E 023°36'3 5.0
2017-Oct-12 09:00N 37°57' E 023°38'1 2.6
2017-Oct-12 08:30N 37°56' E 023°37'1212.2
2017-Oct-12 07:32N 37°47' E 023°27'012.7
2017-Oct-12 07:30N 37°47' E 023°27'3 5.3
2017-Oct-12 07:00N 37°45' E 023°25'3 5.3
2017-Oct-12 06:30N 37°47' E 023°27'612.5
2017-Oct-12 06:00N 37°51' E 023°33'612.6
2017-Oct-12 05:30N 37°56' E 023°37'1 0.1
2017-Oct-11 16:56N 37°57' E 023°38'0 0.0
2017-Oct-10 16:58N 37°57' E 023°38'2 4.4
2017-Oct-10 16:30N 37°56' E 023°36'713.1
2017-Oct-10 16:00N 37°50' E 023°31'612.8
2017-Oct-10 15:30N 37°46' E 023°25'2 2.9
2017-Oct-10 14:59N 37°45' E 023°25'8 7.8
2017-Oct-10 13:55N 37°51' E 023°32'512.5
2017-Oct-10 13:30N 37°55' E 023°36'2 4.6
2017-Oct-10 13:00N 37°57' E 023°39'2 3.3
2017-Oct-10 12:30N 37°56' E 023°37'713.1
2017-Oct-10 12:00N 37°51' E 023°32'612.9
2017-Oct-10 11:30N 37°46' E 023°25'2 3.0
2017-Oct-10 10:55N 37°45' E 023°26'2 3.7
2017-Oct-10 10:30N 37°46' E 023°25'612.9
2017-Oct-10 10:00N 37°50' E 023°31'612.6
2017-Oct-10 09:30N 37°55' E 023°36'2 4.4
2017-Oct-10 09:00N 37°57' E 023°38'0 0.6
2017-Oct-10 08:30N 37°57' E 023°38'612.1
2017-Oct-10 08:00N 37°52' E 023°33'612.7
2017-Oct-10 07:30N 37°48' E 023°27'13 0.9
2017-Oct-09 16:57N 37°57' E 023°38'2 4.1
2017-Oct-09 16:30N 37°56' E 023°37'713.1
2017-Oct-09 16:00N 37°50' E 023°32'613.0
2017-Oct-09 15:30N 37°46' E 023°25'2 3.0
2017-Oct-09 14:59N 37°45' E 023°26'1 3.1
2017-Oct-09 14:30N 37°46' E 023°25'612.8
2017-Oct-09 14:00N 37°50' E 023°31'612.6
2017-Oct-09 13:30N 37°55' E 023°36'2 4.8
2017-Oct-09 13:00N 37°57' E 023°39'2 3.1
2017-Oct-09 12:30N 37°56' E 023°37'713.1
2017-Oct-09 12:00N 37°51' E 023°32'613.0
2017-Oct-09 11:30N 37°47' E 023°26'2 3.6
2017-Oct-09 11:00N 37°45' E 023°25'2 3.7
2017-Oct-09 10:29N 37°47' E 023°26'612.7
2017-Oct-09 10:00N 37°50' E 023°32'612.2
2017-Oct-09 09:30N 37°56' E 023°36'2 4.6
2017-Oct-09 09:00N 37°57' E 023°39'2 3.3
2017-Oct-09 08:30N 37°56' E 023°37'612.8
2017-Oct-09 08:00N 37°51' E 023°32'612.7
2017-Oct-09 07:30N 37°47' E 023°26'2 3.2
2017-Oct-09 06:55N 37°45' E 023°26'3 7.2
2017-Oct-09 06:30N 37°47' E 023°27'612.6
2017-Oct-09 06:00N 37°52' E 023°33'612.2
2017-Oct-09 05:30N 37°56' E 023°38'1 1.3
2017-Oct-09 05:00N 37°57' E 023°38'0 0.0
2017-Oct-09 04:30N 37°57' E 023°38'0 0.0
2017-Oct-08 17:10N 37°57' E 023°38'0 0.1
2017-Oct-08 17:00N 37°57' E 023°38'4 7.5
2017-Oct-08 16:30N 37°54' E 023°35'612.9
2017-Oct-08 16:00N 37°49' E 023°30'611.3
2017-Oct-08 15:30N 37°45' E 023°25'0 0.7
2017-Oct-08 15:00N 37°45' E 023°26'1 2.5
2017-Oct-08 14:30N 37°46' E 023°25'612.8
2017-Oct-08 14:00N 37°50' E 023°31'612.9
2017-Oct-08 13:30N 37°55' E 023°36'3 5.4
2017-Oct-08 13:00N 37°57' E 023°39'4 7.6
2017-Oct-08 12:30N 37°54' E 023°35'612.6
2017-Oct-08 12:00N 37°49' E 023°30'611.6
2017-Oct-08 11:30N 37°45' E 023°25'1 1.1
2017-Oct-08 11:00N 37°45' E 023°26'2 3.0
2017-Oct-08 10:30N 37°46' E 023°25'612.8
2017-Oct-08 10:00N 37°50' E 023°31'612.8
2017-Oct-08 09:30N 37°56' E 023°36'2 4.8
2017-Oct-08 09:01N 37°57' E 023°39'3 5.1
2017-Oct-08 08:30N 37°55' E 023°36'612.5
2017-Oct-08 08:00N 37°50' E 023°31'612.8
2017-Oct-08 07:30N 37°46' E 023°25'1 2.8
2017-Oct-08 07:00N 37°45' E 023°25'4 8.3
2017-Oct-08 06:30N 37°48' E 023°28'612.6
2017-Oct-08 06:01N 37°53' E 023°34'510.9
2017-Oct-08 05:30N 37°57' E 023°39'0 0.0
2017-Oct-08 05:00N 37°57' E 023°39'0 0.0
2017-Oct-07 16:56N 37°57' E 023°39'3 7.5
2017-Oct-07 16:30N 37°54' E 023°36'612.4
2017-Oct-07 16:00N 37°49' E 023°32'612.8
2017-Oct-07 15:30N 37°46' E 023°25'1 2.6
2017-Oct-07 14:58N 37°45' E 023°25'3 5.8
2017-Oct-07 14:30N 37°47' E 023°27'611.9
2017-Oct-07 14:00N 37°51' E 023°33'611.9
2017-Oct-07 13:30N 37°56' E 023°37'1 2.5
2017-Oct-07 13:00N 37°57' E 023°38'611.8
2017-Oct-07 12:30N 37°51' E 023°35'611.6
2017-Oct-07 12:00N 37°49' E 023°29'5 9.2
2017-Oct-07 11:30N 37°45' E 023°25'  
Track history (hours):
 
Tides and Currents Weather Stations Pressure Air Temp Water Temp Dewpoint Dewpoint Depression Visibility Wind Speed Wind Dir Waves Ship Positions

Ag Nektarios Aiginas

Last reported at 2017-Oct-17 11:30 UTC. Time now 2017-Oct-17 11:39 UTC.
Position N 37°46' E 023°26'.

Length 75 m; draft 2.7 m.

Type: Passenger vessel. MMSI: 237021400.

Date/timePositionNaut miles runAvg speedWind from/ knotsBaromVisibWave heightAir tempDewpointWater temp
2017-Oct-17 11:30N 37°46' E 023°26'2 3.6
2017-Oct-17 11:00N 37°45' E 023°25'2 3.2
2017-Oct-17 10:29N 37°46' E 023°26'612.7
2017-Oct-17 10:00N 37°50' E 023°32'612.8
2017-Oct-17 09:30N 37°55' E 023°36'2 3.4
2017-Oct-17 08:52N 37°57' E 023°39'2 4.3
2017-Oct-17 08:30N 37°56' E 023°37'612.5
2017-Oct-17 08:00N 37°51' E 023°32'612.5
2017-Oct-17 07:30N 37°47' E 023°26'2 3.1
2017-Oct-17 06:48N 37°45' E 023°25'3 8.7
2017-Oct-17 06:30N 37°47' E 023°27'612.7
2017-Oct-17 06:00N 37°51' E 023°33'612.4
2017-Oct-17 05:30N 37°56' E 023°37'1 2.1
2017-Oct-17 05:00N 37°57' E 023°38'0 0.0
2017-Oct-17 04:30N 37°57' E 023°38'0 0.0
2017-Oct-16 16:53N 37°57' E 023°38'2 5.3
2017-Oct-16 16:31N 37°55' E 023°37'612.8
2017-Oct-16 16:01N 37°50' E 023°32'612.8
2017-Oct-16 15:31N 37°46' E 023°25'2 3.5
2017-Oct-16 15:01N 37°45' E 023°25'7 7.2
2017-Oct-16 14:01N 37°50' E 023°31'713.1
2017-Oct-16 13:31N 37°55' E 023°36'2 4.2
2017-Oct-16 13:01N 37°57' E 023°39'3 5.1
2017-Oct-16 12:31N 37°55' E 023°36'612.6
2017-Oct-16 12:01N 37°50' E 023°31'612.6
2017-Oct-16 11:31N 37°46' E 023°25'1 2.8
2017-Oct-16 11:01N 37°45' E 023°25'2 3.4
2017-Oct-16 10:27N 37°47' E 023°26'612.9
2017-Oct-16 10:00N 37°50' E 023°31'612.9
2017-Oct-16 09:31N 37°55' E 023°36'2 4.4
2017-Oct-16 09:01N 37°57' E 023°39'0 0.7
2017-Oct-16 08:31N 37°57' E 023°38'612.0
2017-Oct-16 07:59N 37°52' E 023°33'612.6
2017-Oct-16 07:30N 37°48' E 023°27'3 6.5
2017-Oct-16 07:00N 37°45' E 023°25'2 4.7
2017-Oct-16 06:30N 37°47' E 023°26'612.8
2017-Oct-16 06:00N 37°51' E 023°33'612.8
2017-Oct-16 05:30N 37°56' E 023°37'1 2.1
2017-Oct-16 05:00N 37°57' E 023°39'0 0.0
2017-Oct-16 04:30N 37°57' E 023°39'0 0.0
2017-Oct-15 17:16N 37°57' E 023°39'0 0.0
2017-Oct-15 17:01N 37°57' E 023°39'5 9.5
2017-Oct-15 16:30N 37°53' E 023°34'612.4
2017-Oct-15 16:00N 37°49' E 023°29'5 9.3
2017-Oct-15 15:29N 37°45' E 023°25'0 0.1
2017-Oct-15 15:00N 37°45' E 023°26'7 6.8
2017-Oct-15 14:00N 37°50' E 023°31'613.0
2017-Oct-15 13:31N 37°55' E 023°36'2 5.0
2017-Oct-15 13:00N 37°57' E 023°39'3 5.1
2017-Oct-15 12:31N 37°55' E 023°36'612.5
2017-Oct-15 12:00N 37°50' E 023°31'612.5
2017-Oct-15 11:30N 37°46' E 023°25'2 3.2
2017-Oct-15 11:00N 37°45' E 023°25'1 2.7
2017-Oct-15 10:30N 37°46' E 023°25'612.8
2017-Oct-15 10:01N 37°50' E 023°31'612.9
2017-Oct-15 09:31N 37°55' E 023°36'2 4.9
2017-Oct-15 09:01N 37°57' E 023°39'3 5.1
2017-Oct-15 08:30N 37°55' E 023°36'612.6
2017-Oct-15 08:01N 37°50' E 023°31'612.5
2017-Oct-15 07:31N 37°46' E 023°25'1 2.8
2017-Oct-15 07:00N 37°45' E 023°25'4 7.9
2017-Oct-15 06:30N 37°48' E 023°28'612.7
2017-Oct-15 06:00N 37°53' E 023°34'611.2
2017-Oct-15 05:30N 37°57' E 023°39'0 0.0
2017-Oct-15 05:01N 37°57' E 023°39'0 0.0
2017-Oct-14 17:57N 37°57' E 023°39'1 1.8
2017-Oct-14 17:30N 37°56' E 023°38'612.3
2017-Oct-14 17:00N 37°51' E 023°33'612.5
2017-Oct-14 16:30N 37°47' E 023°27'3 5.7
2017-Oct-14 16:00N 37°45' E 023°25'0 0.0
2017-Oct-14 15:30N 37°45' E 023°25'4 7.8
2017-Oct-14 15:00N 37°48' E 023°28'612.9
2017-Oct-14 14:30N 37°52' E 023°34'611.0
2017-Oct-14 14:00N 37°57' E 023°39'0 0.0
2017-Oct-14 13:30N 37°57' E 023°39'0 0.0
2017-Oct-14 13:00N 37°57' E 023°38'510.1
2017-Oct-14 12:30N 37°53' E 023°34'612.6
2017-Oct-14 12:00N 37°48' E 023°29'4 8.7
2017-Oct-14 11:30N 37°45' E 023°25'0 0.0
2017-Oct-14 11:00N 37°45' E 023°25'4 8.0
2017-Oct-14 10:30N 37°48' E 023°28'612.8
2017-Oct-14 10:00N 37°53' E 023°34'510.9
2017-Oct-14 09:30N 37°57' E 023°39'0 0.0
2017-Oct-14 09:00N 37°57' E 023°39'4 8.1
2017-Oct-14 08:30N 37°53' E 023°36'612.4
2017-Oct-14 08:00N 37°49' E 023°30'611.4
2017-Oct-14 07:30N 37°45' E 023°25'0 0.6
2017-Oct-14 07:00N 37°45' E 023°25'611.0
2017-Oct-14 06:30N 37°49' E 023°30'612.5
2017-Oct-14 06:00N 37°54' E 023°35'4 8.5
2017-Oct-14 05:30N 37°57' E 023°38'0 0.0
2017-Oct-14 05:00N 37°57' E 023°38'0 0.0
2017-Oct-14 04:30N 37°57' E 023°38'0 0.0
2017-Oct-13 17:39N 37°57' E 023°38'0 0.1
2017-Oct-13 17:30N 37°57' E 023°38'5 9.8
2017-Oct-13 17:00N 37°53' E 023°35'612.6
2017-Oct-13 16:30N 37°48' E 023°29'5 8.6
2017-Oct-13 15:58N 37°45' E 023°26'0 0.0
2017-Oct-13 15:30N 37°45' E 023°26'0 0.0
2017-Oct-13 15:00N 37°45' E 023°25'4 8.5
2017-Oct-13 14:30N 37°48' E 023°28'612.8
2017-Oct-13 14:00N 37°53' E 023°34'510.4
2017-Oct-13 13:30N 37°57' E 023°39'0 0.0
2017-Oct-13 13:00N 37°57' E 023°39'2 4.9
2017-Oct-13 12:30N 37°55' E 023°36'612.4
2017-Oct-13 12:00N 37°50' E 023°32'612.8
2017-Oct-13 11:30N 37°46' E 023°25'2 3.2
2017-Oct-13 11:00N 37°45' E 023°26'2 3.9
2017-Oct-13 10:27N 37°47' E 023°26'612.7
2017-Oct-13 10:00N 37°50' E 023°31'612.8
2017-Oct-13 09:30N 37°55' E 023°36'2 4.2
2017-Oct-13 09:00N 37°57' E 023°39'3 6.3
2017-Oct-13 08:30N 37°55' E 023°36'612.5
2017-Oct-13 08:00N 37°50' E 023°31'612.4
2017-Oct-13 07:30N 37°46' E 023°25'1 2.2
2017-Oct-13 07:00N 37°45' E 023°25'4 8.8
2017-Oct-13 06:30N 37°48' E 023°29'612.6
2017-Oct-13 06:00N 37°53' E 023°34'510.1
2017-Oct-13 05:30N 37°57' E 023°38'0 0.0
2017-Oct-13 05:00N 37°57' E 023°38'0 0.0
2017-Oct-13 04:30N 37°57' E 023°38'0 0.0
2017-Oct-12 16:58N 37°57' E 023°38'3 5.5
2017-Oct-12 16:31N 37°55' E 023°36'612.8
2017-Oct-12 16:00N 37°50' E 023°31'612.8
2017-Oct-12 15:31N 37°46' E 023°25'1 2.5
2017-Oct-12 15:01N 37°45' E 023°26'1 2.9
2017-Oct-12 14:30N 37°46' E 023°25'612.7
2017-Oct-12 14:01N 37°50' E 023°31'612.6
2017-Oct-12 13:30N 37°55' E 023°36'2 4.7
2017-Oct-12 13:00N 37°57' E 023°39'2 4.0
2017-Oct-12 12:31N 37°56' E 023°36'612.8
2017-Oct-12 12:01N 37°50' E 023°32'612.9
2017-Oct-12 11:31N 37°46' E 023°25'2 2.9
2017-Oct-12 10:58N 37°45' E 023°25'1 2.7
2017-Oct-12 10:31N 37°46' E 023°25'612.8
2017-Oct-12 10:01N 37°50' E 023°31'612.9
2017-Oct-12 09:30N 37°55' E 023°36'3 5.0
2017-Oct-12 09:00N 37°57' E 023°38'1 2.6
2017-Oct-12 08:30N 37°56' E 023°37'1212.2
2017-Oct-12 07:32N 37°47' E 023°27'012.7
2017-Oct-12 07:30N 37°47' E 023°27'3 5.3
2017-Oct-12 07:00N 37°45' E 023°25'3 5.3
2017-Oct-12 06:30N 37°47' E 023°27'612.5
2017-Oct-12 06:00N 37°51' E 023°33'612.6
2017-Oct-12 05:30N 37°56' E 023°37'1 0.1
2017-Oct-11 16:56N 37°57' E 023°38'0 0.0
2017-Oct-10 16:58N 37°57' E 023°38'2 4.4
2017-Oct-10 16:30N 37°56' E 023°36'713.1
2017-Oct-10 16:00N 37°50' E 023°31'612.8
2017-Oct-10 15:30N 37°46' E 023°25'2 2.9
2017-Oct-10 14:59N 37°45' E 023°25'8 7.8
2017-Oct-10 13:55N 37°51' E 023°32'512.5
2017-Oct-10 13:30N 37°55' E 023°36'2 4.6
2017-Oct-10 13:00N 37°57' E 023°39'2 3.3
2017-Oct-10 12:30N 37°56' E 023°37'713.1
2017-Oct-10 12:00N 37°51' E 023°32'612.9
2017-Oct-10 11:30N 37°46' E 023°25'2 3.0
2017-Oct-10 10:55N 37°45' E 023°26'2 3.7
2017-Oct-10 10:30N 37°46' E 023°25'612.9
2017-Oct-10 10:00N 37°50' E 023°31'612.6
2017-Oct-10 09:30N 37°55' E 023°36'2 4.4
2017-Oct-10 09:00N 37°57' E 023°38'0 0.6
2017-Oct-10 08:30N 37°57' E 023°38'612.1
2017-Oct-10 08:00N 37°52' E 023°33'612.7
2017-Oct-10 07:30N 37°48' E 023°27'13 0.9
2017-Oct-09 16:57N 37°57' E 023°38'2 4.1
2017-Oct-09 16:30N 37°56' E 023°37'713.1
2017-Oct-09 16:00N 37°50' E 023°32'613.0
2017-Oct-09 15:30N 37°46' E 023°25'2 3.0
2017-Oct-09 14:59N 37°45' E 023°26'1 3.1
2017-Oct-09 14:30N 37°46' E 023°25'612.8
2017-Oct-09 14:00N 37°50' E 023°31'612.6
2017-Oct-09 13:30N 37°55' E 023°36'2 4.8
2017-Oct-09 13:00N 37°57' E 023°39'2 3.1
2017-Oct-09 12:30N 37°56' E 023°37'713.1
2017-Oct-09 12:00N 37°51' E 023°32'613.0
2017-Oct-09 11:30N 37°47' E 023°26'2 3.6
2017-Oct-09 11:00N 37°45' E 023°25'2 3.7
2017-Oct-09 10:29N 37°47' E 023°26'612.7
2017-Oct-09 10:00N 37°50' E 023°32'612.2
2017-Oct-09 09:30N 37°56' E 023°36'2 4.6
2017-Oct-09 09:00N 37°57' E 023°39'2 3.3
2017-Oct-09 08:30N 37°56' E 023°37'612.8
2017-Oct-09 08:00N 37°51' E 023°32'612.7
2017-Oct-09 07:30N 37°47' E 023°26'2 3.2
2017-Oct-09 06:55N 37°45' E 023°26'3 7.2
2017-Oct-09 06:30N 37°47' E 023°27'612.6
2017-Oct-09 06:00N 37°52' E 023°33'612.2
2017-Oct-09 05:30N 37°56' E 023°38'1 1.3
2017-Oct-09 05:00N 37°57' E 023°38'0 0.0
2017-Oct-09 04:30N 37°57' E 023°38'0 0.0
2017-Oct-08 17:10N 37°57' E 023°38'0 0.1
2017-Oct-08 17:00N 37°57' E 023°38'4 7.5
2017-Oct-08 16:30N 37°54' E 023°35'612.9
2017-Oct-08 16:00N 37°49' E 023°30'611.3
2017-Oct-08 15:30N 37°45' E 023°25'0 0.7
2017-Oct-08 15:00N 37°45' E 023°26'1 2.5
2017-Oct-08 14:30N 37°46' E 023°25'612.8
2017-Oct-08 14:00N 37°50' E 023°31'612.9
2017-Oct-08 13:30N 37°55' E 023°36'3 5.4
2017-Oct-08 13:00N 37°57' E 023°39'4 7.6
2017-Oct-08 12:30N 37°54' E 023°35'612.6
2017-Oct-08 12:00N 37°49' E 023°30'611.6
2017-Oct-08 11:30N 37°45' E 023°25'1 1.1
2017-Oct-08 11:00N 37°45' E 023°26'2 3.0
2017-Oct-08 10:30N 37°46' E 023°25'612.8
2017-Oct-08 10:00N 37°50' E 023°31'612.8
2017-Oct-08 09:30N 37°56' E 023°36'2 4.8
2017-Oct-08 09:01N 37°57' E 023°39'3 5.1
2017-Oct-08 08:30N 37°55' E 023°36'612.5
2017-Oct-08 08:00N 37°50' E 023°31'612.8
2017-Oct-08 07:30N 37°46' E 023°25'1 2.8
2017-Oct-08 07:00N 37°45' E 023°25'4 8.3
2017-Oct-08 06:30N 37°48' E 023°28'612.6
2017-Oct-08 06:01N 37°53' E 023°34'510.9
2017-Oct-08 05:30N 37°57' E 023°39'0 0.0
2017-Oct-08 05:00N 37°57' E 023°39'0 0.0
2017-Oct-07 16:56N 37°57' E 023°39'3 7.5
2017-Oct-07 16:30N 37°54' E 023°36'612.4
2017-Oct-07 16:00N 37°49' E 023°32'612.8
2017-Oct-07 15:30N 37°46' E 023°25'1 2.6
2017-Oct-07 14:58N 37°45' E 023°25'3 5.8
2017-Oct-07 14:30N 37°47' E 023°27'611.9
2017-Oct-07 14:00N 37°51' E 023°33'611.9
2017-Oct-07 13:30N 37°56' E 023°37'1 2.5
2017-Oct-07 13:00N 37°57' E 023°38'611.8
2017-Oct-07 12:30N 37°51' E 023°35'611.6
2017-Oct-07 12:00N 37°49' E 023°29'5 9.2
2017-Oct-07 11:30N 37°45' E 023°25'  

Dump ship's entire track history